Time;durP1;ratioP1;P1;durP2;ratioP2;P2;SDS_P1;SDS_P2;PMS_P1;PMS_P2;Temp;Humidity;BMP_temperature;BMP_pressure;BME280_temperature;BME280_humidity;BME280_pressure;Samples;Min_cycle;Max_cycle;Signal;HPM_P1;HPM_P2
2022/05/29 00:01:16;;;;;;;8.97;1.60;;;;;;;11.44;61.60;101746.41;5194416;28;20054;-76
2022/05/29 00:03:49;;;;;;;5.70;1.50;;;;;;;11.36;62.38;101753.81;5193987;28;20390;-76
2022/05/29 00:06:21;;;;;;;6.70;1.90;;;;;;;10.99;63.47;101751.16;5194228;28;20086;-76
2022/05/29 00:08:52;;;;;;;6.60;2.03;;;;;;;11.44;61.69;101729.81;5196359;28;20038;-76
2022/05/29 00:11:23;;;;;;;3.10;1.30;;;;;;;11.42;61.63;101735.13;5197140;28;20077;-76
2022/05/29 00:14:00;;;;;;;4.37;1.30;;;;;;;11.50;61.71;101746.09;5197879;28;20472;-76
2022/05/29 00:16:32;;;;;;;7.33;1.53;;;;;;;11.34;62.36;101747.78;5201107;28;20078;-76
2022/05/29 00:19:03;;;;;;;7.13;1.83;;;;;;;11.35;62.16;101739.81;5198522;28;20096;-76
2022/05/29 00:21:36;;;;;;;4.60;1.47;;;;;;;11.30;62.64;101741.81;5198995;28;20025;-76
2022/05/29 00:24:09;;;;;;;11.00;2.53;;;;;;;11.10;62.89;101727.91;5200484;28;20030;-76
2022/05/29 00:26:41;;;;;;;7.23;1.83;;;;;;;11.30;62.75;101744.44;5197962;28;20026;-76
2022/05/29 00:29:12;;;;;;;6.10;2.10;;;;;;;11.32;62.34;101729.50;5194138;28;20415;-77
2022/05/29 00:31:43;;;;;;;5.33;1.50;;;;;;;11.31;62.34;101734.81;5193596;28;20046;-77
2022/05/29 00:34:15;;;;;;;9.67;1.87;;;;;;;11.19;62.47;101710.03;5191841;28;20084;-76
2022/05/29 00:36:47;;;;;;;7.37;1.73;;;;;;;11.19;62.65;101725.78;5192255;28;20489;-77
2022/05/29 00:39:19;;;;;;;8.63;2.40;;;;;;;10.76;64.30;101719.00;5191909;28;20037;-77
2022/05/29 00:41:51;;;;;;;8.10;2.07;;;;;;;10.48;64.95;101694.09;5192567;28;20027;-77
2022/05/29 00:44:28;;;;;;;6.17;1.90;;;;;;;10.90;64.39;101715.75;5189741;28;20639;-76
2022/05/29 00:47:09;;;;;;;11.53;2.47;;;;;;;10.96;63.99;101712.00;5191567;28;20088;-76
2022/05/29 00:49:42;;;;;;;10.17;3.07;;;;;;;10.79;64.90;101716.25;5190944;28;20034;-76
2022/05/29 00:52:29;;;;;;;6.40;1.80;;;;;;;10.97;63.41;101709.28;5191434;28;20038;-75
2022/05/29 00:55:04;;;;;;;10.10;1.80;;;;;;;10.99;63.94;101706.59;5191766;28;20030;-76
2022/05/29 00:57:40;;;;;;;6.13;2.00;;;;;;;10.82;64.88;101705.63;5191265;28;20038;-76
2022/05/29 01:00:20;;;;;;;8.57;2.03;;;;;;;10.98;64.26;101705.75;5191538;28;20057;-77
2022/05/29 01:02:54;;;;;;;7.53;1.87;;;;;;;10.77;65.35;101704.97;5192064;28;20501;-77
2022/05/29 01:05:28;;;;;;;14.30;2.33;;;;;;;10.69;65.97;101697.50;5190345;28;20026;-75
2022/05/29 01:08:05;;;;;;;7.43;2.08;;;;;;;10.61;66.51;101699.63;5201312;28;20749;-76
2022/05/29 01:10:49;;;;;;;7.83;2.10;;;;;;;10.88;65.40;101697.47;5191603;28;20021;-75
2022/05/29 01:14:02;;;;;;;7.07;2.20;;;;;;;10.98;64.70;101699.63;5191465;28;20053;-76
2022/05/29 01:17:02;;;;;;;8.60;1.77;;;;;;;10.99;65.01;101698.75;5191826;28;20028;-76
2022/05/29 01:19:51;;;;;;;9.77;2.90;;;;;;;10.71;67.56;101689.56;5192233;28;20022;-76
2022/05/29 01:22:38;;;;;;;6.33;2.47;;;;;;;10.64;67.90;101694.25;5191608;28;20035;-76
2022/05/29 01:25:27;;;;;;;9.97;2.27;;;;;;;10.78;66.95;101688.34;5191236;28;20482;-76
2022/05/29 01:28:04;;;;;;;10.17;4.37;;;;;;;10.63;68.10;101687.28;5191118;28;20018;-76
2022/05/29 01:31:03;;;;;;;14.23;3.33;;;;;;;10.84;67.20;101677.56;5192045;28;20022;-76
2022/05/29 01:33:55;;;;;;;7.87;3.07;;;;;;;11.00;65.83;101677.69;5191129;28;20145;-76
2022/05/29 01:36:38;;;;;;;7.83;2.23;;;;;;;10.94;66.79;101680.63;5190356;28;20026;-75
2022/05/29 01:39:23;;;;;;;10.50;2.90;;;;;;;10.94;66.24;101664.03;5190503;28;20028;-76
2022/05/29 01:42:02;;;;;;;9.60;2.88;;;;;;;10.80;67.28;101669.94;5187798;28;20084;-76
2022/05/29 01:44:51;;;;;;;6.20;2.43;;;;;;;10.55;68.95;101676.31;5191254;28;20442;-76
2022/05/29 01:47:28;;;;;;;7.70;2.47;;;;;;;10.74;67.77;101664.06;5189875;28;20074;-76
2022/05/29 01:50:06;;;;;;;10.00;2.43;;;;;;;10.44;69.31;101661.09;5190058;28;20172;-76
2022/05/29 01:52:45;;;;;;;9.13;2.80;;;;;;;10.32;69.86;101650.25;5191009;28;20785;-74
2022/05/29 01:55:26;;;;;;;11.77;2.90;;;;;;;10.31;70.75;101666.03;5191018;28;20039;-76
2022/05/29 01:58:08;;;;;;;18.93;3.13;;;;;;;10.43;69.58;101664.63;5190138;28;20586;-76
2022/05/29 02:00:48;;;;;;;14.30;2.20;;;;;;;10.62;68.72;101659.41;5190586;28;20050;-76
2022/05/29 02:03:25;;;;;;;10.50;2.47;;;;;;;10.10;71.42;101655.59;5191118;28;20065;-75
2022/05/29 02:06:00;;;;;;;7.63;2.67;;;;;;;10.16;70.99;101653.56;5188559;28;20122;-76
2022/05/29 02:09:06;;;;;;;8.50;2.43;;;;;;;10.52;68.17;101648.50;5191564;28;20026;-76
2022/05/29 02:11:37;;;;;;;8.77;2.43;;;;;;;10.14;70.20;101639.69;5191508;28;20032;-76
2022/05/29 02:14:17;;;;;;;6.23;2.30;;;;;;;10.19;70.72;101651.72;5190719;28;20022;-76
2022/05/29 02:16:55;;;;;;;7.67;1.90;;;;;;;10.44;69.63;101654.06;5191511;28;20029;-76
2022/05/29 02:19:48;;;;;;;6.27;1.83;;;;;;;10.20;70.45;101643.81;5189301;28;20631;-76
2022/05/29 02:22:32;;;;;;;10.03;2.67;;;;;;;10.45;69.55;101647.94;5191109;28;20026;-76
2022/05/29 02:25:18;;;;;;;12.88;3.83;;;;;;;10.51;69.09;101636.31;5189840;28;20034;-76
2022/05/29 02:28:02;;;;;;;8.97;2.73;;;;;;;10.52;69.60;101632.81;5191362;28;20046;-76
2022/05/29 02:30:47;;;;;;;7.22;2.25;;;;;;;10.57;69.17;101630.81;5191230;28;20058;-76
2022/05/29 02:33:18;;;;;;;;;;;;;;;10.73;66.50;101637.94;5191630;28;20084;-75
2022/05/29 02:36:19;;;;;;;9.60;2.40;;;;;;;10.65;68.47;101630.44;5189424;28;19918;-75
2022/05/29 02:39:09;;;;;;;8.50;2.70;;;;;;;10.57;68.24;101630.81;5191020;28;20494;-75
2022/05/29 02:42:05;;;;;;;11.77;3.97;;;;;;;10.53;68.42;101632.72;5191206;28;20027;-75
2022/05/29 02:44:45;;;;;;;8.93;2.87;;;;;;;10.56;68.35;101629.09;5189345;28;20026;-76
2022/05/29 02:47:35;;;;;;;11.30;2.97;;;;;;;10.50;68.96;101630.25;5191147;28;20033;-77
2022/05/29 02:50:27;;;;;;;6.90;2.63;;;;;;;10.50;68.92;101630.25;5190769;28;20022;-76
2022/05/29 02:53:05;;;;;;;9.60;3.40;;;;;;;10.37;69.60;101619.47;5172956;28;20038;-77
2022/05/29 02:55:38;;;;;;;10.70;3.37;;;;;;;10.46;69.08;101627.81;5193262;28;20038;-77
2022/05/29 02:58:20;;;;;;;8.17;2.50;;;;;;;10.47;68.68;101619.91;5194126;28;20022;-77
2022/05/29 03:01:05;;;;;;;9.00;2.47;;;;;;;10.41;68.75;101614.94;5194297;28;20054;-77
2022/05/29 03:03:49;;;;;;;5.15;1.85;;;;;;;10.35;69.46;101612.63;5194653;28;20031;-74
2022/05/29 03:06:52;;;;;;;9.95;2.15;;;;;;;10.46;68.47;101617.31;5192857;28;20038;-77
2022/05/29 03:09:44;;;;;;;6.53;2.37;;;;;;;10.43;69.05;101620.09;5194150;28;20027;-76
2022/05/29 03:12:24;;;;;;;7.50;2.30;;;;;;;10.33;68.84;101598.75;5194093;28;20081;-77
2022/05/29 03:15:14;;;;;;;8.80;2.30;;;;;;;10.34;68.68;101609.13;5194150;28;20505;-77
2022/05/29 03:17:58;;;;;;;8.67;3.40;;;;;;;10.35;69.02;101608.19;5193767;28;20028;-75
2022/05/29 03:20:54;;;;;;;7.25;2.20;;;;;;;10.43;68.57;101609.63;5193592;28;20030;-76
2022/05/29 03:23:40;;;;;;;4.63;2.47;;;;;;;10.39;69.66;101611.53;5193832;28;20118;-76
2022/05/29 03:26:28;;;;;;;10.00;2.73;;;;;;;10.27;69.17;101597.25;5193626;28;20026;-76
2022/05/29 03:29:08;;;;;;;8.47;2.87;;;;;;;10.24;70.08;101613.09;5194072;28;20056;-75
2022/05/29 03:31:41;;;;;;;8.07;2.07;;;;;;;10.27;69.92;101597.25;5192432;28;20030;-76
2022/05/29 03:34:13;;;;;;;8.67;2.40;;;;;;;10.22;70.67;101609.69;5193624;28;20030;-76
2022/05/29 03:36:47;;;;;;;8.83;2.47;;;;;;;10.36;69.95;101604.69;5175498;28;20038;-75
2022/05/29 03:39:20;;;;;;;8.67;2.90;;;;;;;10.38;69.64;101599.38;5193327;28;20105;-76
2022/05/29 03:41:53;;;;;;;6.73;2.27;;;;;;;10.29;70.44;101592.78;5190981;28;20138;-74
2022/05/29 03:44:24;;;;;;;8.77;2.13;;;;;;;10.34;70.58;101593.44;5191818;28;20022;-76
2022/05/29 03:46:56;;;;;;;13.47;2.97;;;;;;;10.35;70.44;101592.50;5204035;28;20029;-75
2022/05/29 03:49:28;;;;;;;11.33;2.83;;;;;;;10.22;70.87;101578.28;5193252;28;20038;-75
2022/05/29 03:52:01;;;;;;;8.37;2.43;;;;;;;10.37;70.49;101593.28;5193553;28;20022;-75
2022/05/29 03:54:33;;;;;;;6.70;1.97;;;;;;;10.33;70.50;101591.75;5193614;28;20030;-75
2022/05/29 03:57:05;;;;;;;7.67;2.10;;;;;;;10.11;75.49;101587.47;5193616;28;20443;-75
2022/05/29 03:59:36;;;;;;;15.90;3.03;;;;;;;10.34;74.25;101587.34;5202118;28;20033;-76
2022/05/29 04:02:07;;;;;;;9.17;2.27;;;;;;;10.33;73.65;101586.50;5210953;28;20102;-75
2022/05/29 04:04:38;;;;;;;10.90;2.60;;;;;;;10.33;73.15;101576.03;5190908;28;20117;-74
2022/05/29 04:07:10;;;;;;;7.50;2.43;;;;;;;10.38;72.20;101586.28;5192485;28;20022;-75
2022/05/29 04:12:31;;;;;;;8.00;2.23;;;;;;;10.25;73.01;101583.38;5193110;28;20026;-75
2022/05/29 04:15:03;;;;;;;11.50;2.33;;;;;;;10.31;72.02;101588.34;5193139;28;20049;-75
2022/05/29 04:17:34;;;;;;;5.80;2.27;;;;;;;10.35;71.68;101579.41;5193055;28;20026;-75
2022/05/29 04:20:06;;;;;;;11.37;2.40;;;;;;;10.16;73.24;101580.28;5191950;28;20049;-75
2022/05/29 04:22:37;;;;;;;13.37;3.40;;;;;;;10.34;72.21;101577.72;5191707;28;20112;-75
2022/05/29 04:25:09;;;;;;;9.97;2.83;;;;;;;10.40;71.65;101571.34;5191104;28;20569;-75
2022/05/29 04:27:41;;;;;;;8.30;2.40;;;;;;;10.41;73.42;101575.66;5192827;28;20582;-75
2022/05/29 04:30:12;;;;;;;8.50;3.00;;;;;;;10.25;76.35;101583.38;5190733;28;20018;-76
2022/05/29 04:33:01;;;;;;;9.87;3.30;;;;;;;10.34;75.05;101559.38;5191762;28;20568;-74
2022/05/29 04:35:44;;;;;;;10.07;2.70;;;;;;;10.44;76.02;101578.13;5191995;28;20026;-74
2022/05/29 04:38:17;;;;;;;9.53;3.37;;;;;;;10.41;76.93;101583.50;5192263;28;20061;-74
2022/05/29 04:40:48;;;;;;;16.50;3.50;;;;;;;10.34;77.28;101587.34;5192692;28;20061;-75
2022/05/29 04:43:20;;;;;;;10.97;2.50;;;;;;;10.40;78.19;101585.28;5192641;28;20050;-75
2022/05/29 04:45:55;;;;;;;12.30;3.50;;;;;;;10.45;80.52;101589.44;5191290;28;20030;-75
2022/05/29 04:48:27;;;;;;;14.50;3.37;;;;;;;10.26;84.92;101590.31;5192860;28;20045;-76
2022/05/29 04:51:01;;;;;;;11.50;3.57;;;;;;;10.12;84.43;101589.16;5190962;28;20068;-76
2022/05/29 04:53:33;;;;;;;6.40;3.30;;;;;;;10.27;85.61;101586.78;5191238;28;20054;-76
2022/05/29 04:56:04;;;;;;;10.37;3.07;;;;;;;9.91;88.38;101591.84;5190284;28;20022;-76
2022/05/29 04:58:35;;;;;;;10.23;3.30;;;;;;;10.12;88.19;101583.94;5190953;28;20049;-76
2022/05/29 05:01:07;;;;;;;11.60;2.87;;;;;;;10.25;89.85;101579.00;5195580;28;20112;-76
2022/05/29 05:03:39;;;;;;;7.77;2.90;;;;;;;10.33;88.18;101578.66;5195235;28;20041;-75
2022/05/29 05:06:11;;;;;;;8.30;3.07;;;;;;;10.25;89.89;101568.53;5193512;28;20069;-76
2022/05/29 05:08:42;;;;;;;8.07;3.07;;;;;;;10.27;90.35;101582.41;5197503;28;20030;-76
2022/05/29 05:11:14;;;;;;;13.07;3.40;;;;;;;10.26;89.01;101564.97;5199076;28;20022;-75
2022/05/29 05:13:45;;;;;;;9.23;3.20;;;;;;;10.08;90.33;101564.06;5192727;28;20034;-76
2022/05/29 05:16:17;;;;;;;10.10;3.50;;;;;;;9.98;90.14;101565.41;5192115;28;20049;-75
2022/05/29 05:18:48;;;;;;;9.60;2.90;;;;;;;10.04;89.32;101552.03;5192803;28;20034;-77
2022/05/29 05:21:19;;;;;;;7.47;3.23;;;;;;;9.92;91.25;101580.47;5189169;28;20569;-77
2022/05/29 05:23:50;;;;;;;8.37;3.27;;;;;;;9.99;91.01;101573.19;5191767;28;20441;-77
2022/05/29 05:26:22;;;;;;;7.87;2.83;;;;;;;10.10;90.41;101570.09;5189539;28;20030;-77
2022/05/29 05:28:53;;;;;;;10.90;3.73;;;;;;;10.26;89.88;101564.16;5191127;28;20026;-76
2022/05/29 05:31:27;;;;;;;10.50;3.33;;;;;;;10.21;88.04;101560.91;5191538;28;20033;-76
2022/05/29 05:33:59;;;;;;;11.70;3.88;;;;;;;10.33;89.66;101565.56;5189391;28;20026;-76
2022/05/29 05:36:30;;;;;;;8.87;3.57;;;;;;;10.34;90.03;101553.28;5191748;28;20033;-76
2022/05/29 05:39:02;;;;;;;10.07;3.10;;;;;;;10.11;88.91;101566.53;5189051;28;20026;-76
2022/05/29 05:41:34;;;;;;;7.80;3.13;;;;;;;10.05;91.99;101572.91;5190975;28;20463;-75
2022/05/29 05:44:05;;;;;;;9.67;4.17;;;;;;;10.38;90.26;101567.94;5190129;28;20030;-76
2022/05/29 05:46:44;;;;;;;10.50;3.47;;;;;;;10.43;90.97;101568.56;5190533;28;20354;-76
2022/05/29 05:49:18;;;;;;;9.30;3.97;;;;;;;10.20;92.76;101564.41;5188880;28;20034;-76
2022/05/29 05:51:51;;;;;;;10.33;3.57;;;;;;;10.49;91.95;101570.09;5191110;28;20041;-76
2022/05/29 05:54:24;;;;;;;10.00;3.03;;;;;;;10.50;90.38;101558.69;5191056;28;20407;-77
2022/05/29 05:56:55;;;;;;;6.63;2.93;;;;;;;10.51;90.17;101555.13;5191174;28;20062;-76
2022/05/29 05:59:26;;;;;;;10.93;3.90;;;;;;;10.57;91.38;101557.47;5191655;28;20057;-76
2022/05/29 06:01:58;;;;;;;8.53;3.10;;;;;;;10.53;90.26;101558.53;5190581;28;20093;-76
2022/05/29 06:04:29;;;;;;;8.07;3.37;;;;;;;10.54;91.68;101557.63;5190555;28;20018;-76
2022/05/29 06:07:00;;;;;;;9.40;3.77;;;;;;;10.58;90.76;101553.06;5191354;28;20076;-76
2022/05/29 06:09:33;;;;;;;8.37;3.50;;;;;;;10.63;90.27;101559.78;5189345;28;20030;-76
2022/05/29 06:12:07;;;;;;;13.13;4.00;;;;;;;10.68;89.86;101561.34;5179434;28;20018;-76
2022/05/29 06:14:39;;;;;;;11.35;3.40;;;;;;;10.64;88.00;101561.50;5191108;28;20498;-76
2022/05/29 06:17:11;;;;;;;12.10;3.43;;;;;;;10.69;88.72;101560.41;5190493;28;20092;-76
2022/05/29 06:19:42;;;;;;;11.80;3.70;;;;;;;10.69;90.67;101557.78;5188903;28;20026;-77
2022/05/29 06:22:13;;;;;;;7.57;3.00;;;;;;;10.77;89.70;101566.97;5190892;28;20113;-77
2022/05/29 06:24:45;;;;;;;11.20;3.43;;;;;;;10.74;89.28;101547.94;5191653;28;20398;-77
2022/05/29 06:27:16;;;;;;;7.03;3.17;;;;;;;10.80;90.04;101554.66;5194942;28;20463;-77
2022/05/29 06:29:47;;;;;;;9.87;3.73;;;;;;;10.92;89.36;101563.66;5194779;28;20038;-77
2022/05/29 06:32:19;;;;;;;11.73;3.00;;;;;;;10.91;89.29;101556.75;5176916;28;20075;-77
2022/05/29 06:34:50;;;;;;;7.70;3.03;;;;;;;10.79;91.46;101548.56;5194144;28;20046;-76
2022/05/29 06:37:21;;;;;;;9.87;3.87;;;;;;;10.99;91.26;101552.81;5194432;28;20080;-76
2022/05/29 06:39:52;;;;;;;10.40;4.17;;;;;;;11.19;90.07;101558.81;5193748;28;20033;-77
2022/05/29 06:42:25;;;;;;;12.50;3.30;;;;;;;11.35;90.35;101561.50;5194396;28;20796;-76
2022/05/29 06:44:58;;;;;;;9.70;2.90;;;;;;;11.39;89.28;101559.56;5193811;28;20038;-76
2022/05/29 06:47:30;;;;;;;8.73;3.23;;;;;;;11.42;90.66;101558.53;5194567;28;20077;-76
2022/05/29 06:50:03;;;;;;;12.17;4.03;;;;;;;11.47;89.21;101565.25;5192641;28;20027;-77
2022/05/29 06:52:34;;;;;;;6.53;2.73;;;;;;;11.51;88.07;101555.44;5193563;28;20429;-77
2022/05/29 06:55:07;;;;;;;6.70;2.53;;;;;;;11.68;87.75;101564.19;5190831;28;20109;-77
2022/05/29 06:57:43;;;;;;;11.47;3.47;;;;;;;11.65;92.16;101561.72;5192723;28;20441;-77
2022/05/29 07:08:53;;;;;;;5.83;2.37;;;;;;;11.84;91.90;101554.59;5182860;28;20038;-77
2022/05/29 07:11:27;;;;;;;7.63;2.30;;;;;;;11.92;88.77;101550.69;5193562;28;20026;-77
2022/05/29 07:13:58;;;;;;;9.40;2.80;;;;;;;12.03;86.42;101548.31;5192019;28;20077;-77
2022/05/29 07:16:31;;;;;;;8.50;2.90;;;;;;;12.12;86.89;101552.25;5194258;28;20030;-77
2022/05/29 07:19:04;;;;;;;7.33;2.80;;;;;;;12.11;88.95;101547.94;5192747;28;20030;-76
2022/05/29 07:21:40;;;;;;;9.83;2.70;;;;;;;12.10;89.29;101543.59;5192578;28;20604;-76
2022/05/29 07:24:12;;;;;;;7.43;3.17;;;;;;;12.32;87.75;101553.75;5194176;28;20710;-75
2022/05/29 07:26:43;;;;;;;9.80;2.87;;;;;;;12.06;84.90;101544.69;5193402;28;20033;-76
2022/05/29 07:29:17;;;;;;;8.37;2.90;;;;;;;12.27;87.59;101540.03;5193315;28;20347;-76
2022/05/29 07:31:51;;;;;;;6.68;2.67;;;;;;;12.50;84.31;101551.03;5193269;28;20065;-77
2022/05/29 07:34:24;;;;;;;11.45;3.05;;;;;;;12.63;84.35;101545.09;5189389;28;20533;-77
2022/05/29 07:37:02;;;;;;;7.83;3.03;;;;;;;12.72;85.02;101539.31;5192521;28;20081;-77
2022/05/29 07:39:39;;;;;;;10.90;2.40;;;;;;;12.86;82.47;101550.78;5193865;28;20038;-77
2022/05/29 07:45:00;;;;;;;9.13;2.47;;;;;;;12.83;84.31;101544.78;5192857;28;20042;-77
2022/05/29 07:47:37;;;;;;;7.60;2.50;;;;;;;13.03;81.71;101534.03;5193325;28;20113;-77
2022/05/29 07:50:11;;;;;;;9.20;2.47;;;;;;;13.03;81.03;101542.78;5192576;28;20030;-78
2022/05/29 07:52:44;;;;;;;;;;;;;;;13.46;80.87;101538.47;5193261;28;20371;-78
2022/05/29 07:55:15;;;;;;;10.30;2.30;;;;;;;13.01;78.93;101522.75;5193060;28;19983;-78
2022/05/29 07:57:48;;;;;;;8.67;2.50;;;;;;;13.23;77.84;101543.34;5191949;28;20034;-77
2022/05/29 08:00:20;;;;;;;10.10;2.57;;;;;;;13.13;76.38;101527.28;5192379;28;20046;-77
2022/05/29 08:02:52;;;;;;;8.47;2.17;;;;;;;13.12;79.40;101533.50;5192542;28;20108;-78
2022/05/29 08:05:23;;;;;;;13.67;3.77;;;;;;;13.18;76.21;101519.94;5190576;28;20033;-77
2022/05/29 08:07:55;;;;;;;12.13;2.30;;;;;;;13.28;76.42;101540.44;5192540;28;20536;-77
2022/05/29 08:10:26;;;;;;;9.20;2.30;;;;;;;13.35;77.75;101520.75;5191041;28;20058;-76
2022/05/29 08:12:57;;;;;;;9.70;2.57;;;;;;;13.43;77.93;101522.88;5192637;28;20061;-77
2022/05/29 08:15:29;;;;;;;8.73;2.10;;;;;;;13.59;75.29;101533.34;5191131;28;20026;-77
2022/05/29 08:18:01;;;;;;;9.50;2.50;;;;;;;13.74;73.44;101512.25;5158329;28;20065;-77
2022/05/29 08:20:32;;;;;;;7.50;2.57;;;;;;;14.27;73.45;101522.97;5191644;28;20034;-77
2022/05/29 08:23:05;;;;;;;8.87;2.80;;;;;;;14.45;71.98;101509.50;5191180;28;20461;-79
2022/05/29 08:31:33;;;;;;;11.20;2.53;;;;;;;14.43;65.14;101506.16;5183242;28;20031;-78
2022/05/29 08:34:04;;;;;;;8.10;2.40;;;;;;;14.81;67.08;101495.81;5190696;28;20030;-79
2022/05/29 08:36:37;;;;;;;8.93;2.63;;;;;;;15.23;66.43;101485.91;5191502;28;20504;-78
2022/05/29 08:39:08;;;;;;;11.40;2.90;;;;;;;15.66;64.30;101481.16;5191404;28;20061;-79
2022/05/29 08:41:48;;;;;;;6.77;1.90;;;;;;;16.51;61.45;101509.50;5190075;28;20719;-78
2022/05/29 08:45:02;;;;;;;8.33;2.57;;;;;;;16.97;60.61;101506.94;5188041;28;20034;-78
2022/05/29 08:47:36;;;;;;;12.30;3.00;;;;;;;16.29;58.76;101511.06;5190113;28;20034;-78
2022/05/29 08:50:14;;;;;;;5.45;1.60;;;;;;;16.26;58.29;101487.53;5190564;28;20034;-80
2022/05/29 08:53:04;;;;;;;5.60;1.70;;;;;;;16.08;61.12;101511.69;5192205;28;20060;-76
2022/05/29 08:55:48;;;;;;;8.20;2.03;;;;;;;15.67;61.89;101501.34;5199002;28;20466;-76
2022/05/29 08:58:44;;;;;;;6.53;2.00;;;;;;;15.83;62.02;101505.53;5189485;28;20053;-78
2022/05/29 09:01:44;;;;;;;8.43;2.17;;;;;;;16.04;60.26;101482.00;5192257;28;20042;-77
2022/05/29 09:04:41;;;;;;;9.00;2.10;;;;;;;16.29;58.86;101464.34;5193397;28;20018;-80
2022/05/29 09:07:17;;;;;;;7.63;1.53;;;;;;;16.39;56.82;101468.97;5190532;28;20069;-77
2022/05/29 09:09:57;;;;;;;7.57;2.40;;;;;;;16.56;60.21;101502.06;5194346;28;20045;-76
2022/05/29 09:12:34;;;;;;;8.40;2.60;;;;;;;16.42;64.03;101485.41;5176954;28;20383;-75
2022/05/29 09:15:12;;;;;;;4.67;2.50;;;;;;;16.15;67.27;101494.44;5191734;28;20022;-75
2022/05/29 09:17:50;;;;;;;6.00;2.23;;;;;;;15.75;66.64;101482.31;5195221;28;20026;-76
2022/05/29 09:20:26;;;;;;;7.57;2.10;;;;;;;16.34;65.39;101490.44;5186827;28;20058;-76
2022/05/29 09:23:01;;;;;;;7.60;2.33;;;;;;;16.87;69.37;101480.38;5188116;28;20026;-77
2022/05/29 09:25:36;;;;;;;7.23;2.03;;;;;;;17.12;63.99;101481.97;5190221;28;20041;-77
2022/05/29 09:28:14;;;;;;;10.90;2.10;;;;;;;17.80;62.29;101464.34;5190573;28;20478;-76
2022/05/29 09:30:47;;;;;;;9.33;1.77;;;;;;;17.33;62.44;101457.44;5192328;28;20402;-76
2022/05/29 09:33:25;;;;;;;6.60;1.70;;;;;;;18.11;57.03;101464.50;5190828;28;20126;-76
2022/05/29 09:36:05;;;;;;;6.77;1.73;;;;;;;17.94;56.70;101465.03;5192541;28;20022;-76
2022/05/29 09:38:47;;;;;;;6.97;2.00;;;;;;;17.64;58.14;101476.19;5189989;28;20033;-77
2022/05/29 09:41:27;;;;;;;4.80;1.50;;;;;;;17.28;56.83;101457.78;5185865;28;20350;-76
2022/05/29 09:44:05;;;;;;;7.47;1.57;;;;;;;16.97;56.51;101470.75;5186667;28;20028;-75
2022/05/29 09:46:45;;;;;;;8.03;2.17;;;;;;;16.76;56.57;101473.25;5204050;28;20022;-76
2022/05/29 09:52:20;;;;;;;6.15;1.48;;;;;;;17.10;59.87;101460.09;5210216;28;20070;-75
2022/05/29 09:54:53;;;;;;;12.67;4.00;;;;;;;17.96;60.06;101457.81;5214208;28;20089;-75
2022/05/29 09:57:30;;;;;;;8.13;2.90;;;;;;;19.16;55.64;101434.59;5201072;28;20386;-75
2022/05/29 10:00:08;;;;;;;10.20;2.83;;;;;;;19.89;51.31;101447.72;5182761;28;20088;-75
2022/05/29 10:02:41;;;;;;;7.60;1.43;;;;;;;19.86;46.77;101442.69;5194607;28;20057;-75
2022/05/29 10:05:33;;;;;;;6.05;1.70;;;;;;;20.10;49.51;101444.13;5195329;28;20034;-75
2022/05/29 10:08:31;;;;;;;5.93;1.80;;;;;;;19.52;53.38;101444.75;5199568;28;20075;-75
2022/05/29 10:11:17;;;;;;;11.10;2.50;;;;;;;19.37;48.76;101441.63;5195258;28;20735;-75
2022/05/29 10:13:50;;;;;;;5.30;1.70;;;;;;;18.93;47.60;101441.84;5185222;28;20034;-75
2022/05/29 10:16:37;;;;;;;5.13;1.50;;;;;;;18.97;48.76;101440.63;5183881;28;20096;-75
2022/05/29 10:19:29;;;;;;;5.83;2.10;;;;;;;18.45;47.94;101426.38;5181449;28;20112;-75
2022/05/29 10:22:08;;;;;;;9.47;2.20;;;;;;;18.16;50.74;101428.81;5184103;28;20153;-75
2022/05/29 10:24:41;;;;;;;4.80;1.40;;;;;;;17.46;58.83;101445.88;5184664;28;20037;-75
2022/05/29 10:27:31;;;;;;;4.53;1.00;;;;;;;17.58;56.42;101438.72;5182208;28;20026;-75
2022/05/29 10:30:07;;;;;;;3.70;0.87;;;;;;;17.34;56.20;101437.94;5182327;28;20125;-74
2022/05/29 10:32:42;;;;;;;5.33;0.80;;;;;;;17.23;58.17;101443.22;5184467;28;20030;-75
2022/05/29 10:35:32;;;;;;;4.90;1.53;;;;;;;16.82;60.43;101443.69;5183335;28;20022;-75
2022/05/29 10:38:13;;;;;;;4.40;1.33;;;;;;;16.38;64.29;101446.97;5183605;28;20554;-75
2022/05/29 10:40:47;;;;;;;2.30;1.00;;;;;;;16.23;67.56;101443.69;5182797;28;20035;-74
2022/05/29 10:43:39;;;;;;;4.30;1.20;;;;;;;16.52;63.46;101442.44;5183131;28;20465;-75
2022/05/29 10:46:12;;;;;;;6.50;1.20;;;;;;;16.07;65.17;101444.81;5183415;28;20104;-74
2022/05/29 10:49:10;;;;;;;4.15;1.38;;;;;;;15.78;65.98;101460.13;5182976;28;20038;-75
2022/05/29 10:51:41;;;;;;;6.13;1.93;;;;;;;15.44;65.72;101456.31;5183829;28;20037;-74
2022/05/29 10:54:24;;;;;;;11.27;2.33;;;;;;;15.08;71.44;101457.94;5182841;28;20803;-74
2022/05/29 10:57:34;;;;;;;4.50;1.53;;;;;;;15.35;71.68;101454.31;5182848;28;20034;-73
2022/05/29 11:00:33;;;;;;;4.77;1.30;;;;;;;15.34;70.38;101458.75;5183474;28;20121;-73
2022/05/29 11:03:33;;;;;;;6.97;1.63;;;;;;;15.09;72.37;101459.63;5182976;28;20671;-73
2022/05/29 11:06:42;;;;;;;7.23;1.67;;;;;;;15.43;71.30;101445.88;5182049;28;20117;-73
2022/05/29 11:09:40;;;;;;;5.53;1.70;;;;;;;15.01;70.14;101446.97;5183386;28;20061;-73
2022/05/29 11:12:20;;;;;;;6.33;2.83;;;;;;;15.30;69.71;101446.72;5183852;28;20050;-74
2022/05/29 11:15:14;;;;;;;5.93;2.00;;;;;;;15.53;69.77;101443.41;5183269;28;20045;-74
2022/05/29 11:18:08;;;;;;;7.33;2.20;;;;;;;15.24;72.21;101441.88;5182956;28;20031;-73
2022/05/29 11:20:51;;;;;;;5.97;1.40;;;;;;;15.63;73.17;101441.78;5184401;28;21336;-74
2022/05/29 11:23:46;;;;;;;6.23;1.83;;;;;;;15.82;72.53;101443.94;5182553;28;20166;-74
2022/05/29 11:26:42;;;;;;;6.38;1.80;;;;;;;16.12;72.40;101441.84;5183213;28;20073;-75
2022/05/29 11:29:40;;;;;;;6.70;1.87;;;;;;;15.96;71.83;101432.38;5183803;28;20014;-75
2022/05/29 11:32:38;;;;;;;5.50;1.23;;;;;;;15.73;69.32;101448.09;5184260;28;20053;-74
2022/05/29 11:35:47;;;;;;;5.13;2.00;;;;;;;15.70;73.37;101447.47;5182896;28;20097;-75
2022/05/29 11:38:38;;;;;;;5.50;1.40;;;;;;;15.81;71.07;101449.34;5183434;28;20037;-74
2022/05/29 11:41:26;;;;;;;5.77;1.50;;;;;;;15.75;69.02;101444.47;5180762;28;20136;-75
2022/05/29 11:44:19;;;;;;;5.53;1.20;;;;;;;15.58;71.48;101441.28;5183198;28;20065;-73
2022/05/29 11:52:54;;;;;;;4.00;1.10;;;;;;;14.95;73.25;101432.41;5192317;28;20027;-76
2022/05/29 11:55:29;;;;;;;3.70;1.30;;;;;;;14.57;68.37;101406.88;5192001;28;20073;-75
2022/05/29 11:58:12;;;;;;;3.90;1.10;;;;;;;15.04;74.70;101435.38;5192039;28;20022;-76
2022/05/29 12:00:57;;;;;;;4.43;1.47;;;;;;;14.87;73.95;101437.38;5189155;28;20133;-75
2022/05/29 12:03:44;;;;;;;;;;;;;;;15.46;69.44;101435.91;5192607;28;20022;-76
2022/05/29 12:06:15;;;;;;;3.67;1.00;;;;;;;14.76;71.87;101430.19;5193236;28;19902;-76
2022/05/29 12:08:52;;;;;;;5.00;1.00;;;;;;;15.30;71.00;101430.03;5191563;28;20095;-76
2022/05/29 12:11:46;;;;;;;4.20;0.87;;;;;;;15.28;70.33;101427.53;5191865;28;20046;-76
2022/05/29 12:14:35;;;;;;;2.87;0.83;;;;;;;15.19;72.79;101391.22;5193192;28;20038;-75
2022/05/29 12:17:19;;;;;;;1.50;0.63;;;;;;;14.71;70.58;101403.28;5192409;28;20128;-76
2022/05/29 12:20:00;;;;;;;2.35;0.65;;;;;;;15.08;70.07;101424.47;5192389;28;20053;-75
2022/05/29 12:22:38;;;;;;;3.77;0.90;;;;;;;14.97;70.63;101411.22;5191519;28;20026;-74
2022/05/29 12:25:39;;;;;;;3.77;0.50;;;;;;;15.23;72.75;101419.09;5190900;28;20035;-75
2022/05/29 12:28:20;;;;;;;2.40;0.70;;;;;;;15.09;72.51;101397.16;5189945;28;20030;-78
2022/05/29 12:30:54;;;;;;;5.07;1.33;;;;;;;15.15;68.46;101395.06;5193005;28;20062;-75
2022/05/29 12:33:27;;;;;;;2.83;0.70;;;;;;;15.66;69.50;101417.81;5189705;28;20030;-76
2022/05/29 12:36:20;;;;;;;4.70;1.20;;;;;;;15.63;68.17;101415.38;5191025;28;20057;-75
2022/05/29 12:46:32;;;;;;;6.13;1.00;;;;;;;15.93;68.41;101416.75;5189770;28;20042;-75
2022/05/29 12:49:13;;;;;;;2.10;0.43;;;;;;;15.75;68.98;101410.16;5188481;28;20558;-75
2022/05/29 12:52:13;;;;;;;1.77;0.50;;;;;;;15.73;70.24;101416.41;5208017;28;20056;-80
2022/05/29 12:55:06;;;;;;;2.10;0.70;;;;;;;15.94;70.68;101418.44;5206072;28;20045;-75